createdAt,value
2023-02-28T00:00:03.029Z,1004.89
2023-02-28T00:01:03.020Z,1004.89
2023-02-28T00:02:03.095Z,1004.87
2023-02-28T00:03:03.074Z,1004.86
2023-02-28T00:04:03.028Z,1004.89
2023-02-28T00:05:02.999Z,1004.92
2023-02-28T00:06:02.988Z,1004.95
2023-02-28T00:07:04.484Z,1004.93
2023-02-28T00:08:02.968Z,1004.91
2023-02-28T00:09:02.974Z,1004.85
2023-02-28T00:10:02.967Z,1004.97
2023-02-28T00:11:02.948Z,1004.86
2023-02-28T00:12:02.948Z,1004.83
2023-02-28T00:13:02.933Z,1004.87
2023-02-28T00:14:02.925Z,1004.86
2023-02-28T00:15:02.911Z,1004.87
2023-02-28T00:16:02.917Z,1004.85
2023-02-28T00:17:02.908Z,1004.85
2023-02-28T00:18:02.891Z,1004.83
2023-02-28T00:19:02.898Z,1004.84
2023-02-28T00:20:02.888Z,1004.82
2023-02-28T00:21:02.882Z,1004.77
2023-02-28T00:22:02.875Z,1004.78
2023-02-28T00:23:02.881Z,1004.81
2023-02-28T00:24:51.401Z,1004.75
2023-02-28T00:25:51.415Z,1004.74
2023-02-28T00:26:51.399Z,1004.80
2023-02-28T00:27:51.392Z,1004.81
2023-02-28T00:28:52.481Z,1004.80
2023-02-28T00:29:52.455Z,1004.83
2023-02-28T00:30:52.521Z,1004.78
2023-02-28T00:31:52.468Z,1004.75
2023-02-28T00:32:52.452Z,1004.80
2023-02-28T00:33:52.448Z,1004.84
2023-02-28T00:34:52.426Z,1004.80
2023-02-28T00:35:52.468Z,1004.83
2023-02-28T00:36:52.432Z,1004.82
2023-02-28T00:37:52.399Z,1004.90
2023-02-28T00:38:52.406Z,1004.83
2023-02-28T00:39:52.423Z,1004.84
2023-02-28T00:40:52.375Z,1004.81
2023-02-28T00:41:52.372Z,1004.87
2023-02-28T00:42:52.364Z,1004.85
2023-02-28T00:43:52.356Z,1004.86
2023-02-28T00:44:52.348Z,1004.86
2023-02-28T00:45:52.368Z,1004.85
2023-02-28T00:46:52.350Z,1004.92
2023-02-28T00:47:52.322Z,1004.85
2023-02-28T00:48:52.318Z,1004.83
2023-02-28T00:49:52.839Z,1004.82
2023-02-28T00:50:52.296Z,1004.84
2023-02-28T00:51:52.294Z,1004.83
2023-02-28T00:52:52.276Z,1004.80
2023-02-28T00:53:52.282Z,1004.80
2023-02-28T00:54:52.314Z,1004.81
2023-02-28T00:55:53.266Z,1004.77
2023-02-28T00:56:52.243Z,1004.85
2023-02-28T00:57:52.311Z,1004.72
2023-02-28T00:58:52.270Z,1004.68
2023-02-28T00:59:52.263Z,1004.72
2023-02-28T01:00:52.216Z,1004.72
2023-02-28T01:01:52.330Z,1004.69
2023-02-28T01:02:52.222Z,1004.78
2023-02-28T01:03:52.203Z,1004.71
2023-02-28T01:04:52.202Z,1004.71
2023-02-28T01:05:52.178Z,1004.76
2023-02-28T01:06:52.166Z,1004.79
2023-02-28T01:07:52.156Z,1004.80
2023-02-28T01:08:52.196Z,1004.80
2023-02-28T01:09:52.156Z,1004.80
2023-02-28T01:10:52.166Z,1004.85
2023-02-28T01:11:52.128Z,1004.82
2023-02-28T01:12:52.124Z,1004.82
2023-02-28T01:13:52.124Z,1004.76
2023-02-28T01:14:52.111Z,1004.74
2023-02-28T01:15:52.210Z,1004.78
2023-02-28T01:16:52.110Z,1004.80
2023-02-28T01:17:52.083Z,1004.84
2023-02-28T01:18:52.074Z,1004.74
2023-02-28T01:19:52.074Z,1004.69
2023-02-28T01:20:52.070Z,1004.71
2023-02-28T01:21:52.048Z,1004.74
2023-02-28T01:22:52.046Z,1004.75
2023-02-28T01:23:52.042Z,1004.75
2023-02-28T01:24:52.043Z,1004.78
2023-02-28T01:25:52.056Z,1004.79
2023-02-28T01:26:52.014Z,1004.82
2023-02-28T01:27:52.006Z,1004.80
2023-02-28T01:28:52.007Z,1004.82
2023-02-28T01:29:51.992Z,1004.78
2023-02-28T01:30:52.309Z,1004.76
2023-02-28T01:31:51.997Z,1004.75
2023-02-28T01:32:51.965Z,1004.76
2023-02-28T01:33:51.962Z,1004.84
2023-02-28T01:34:51.966Z,1004.80
2023-02-28T01:35:51.964Z,1004.73
2023-02-28T01:36:51.935Z,1004.79
2023-02-28T01:37:51.921Z,1004.80
2023-02-28T01:38:51.917Z,1004.81
2023-02-28T01:39:51.928Z,1004.77
2023-02-28T01:40:52.758Z,1004.74
2023-02-28T01:41:51.878Z,1004.78
2023-02-28T01:42:52.892Z,1004.70
2023-02-28T01:43:51.873Z,1004.74
2023-02-28T01:44:51.868Z,1004.74
2023-02-28T01:45:51.922Z,1004.69
2023-02-28T01:46:51.855Z,1004.77
2023-02-28T01:47:51.845Z,1004.70
2023-02-28T01:48:51.838Z,1004.72
2023-02-28T01:49:51.840Z,1004.67
2023-02-28T01:50:51.823Z,1004.64
2023-02-28T01:51:52.059Z,1004.73
2023-02-28T01:52:51.809Z,1004.69
2023-02-28T01:53:51.854Z,1004.58
2023-02-28T01:54:51.798Z,1004.56
2023-02-28T01:55:51.783Z,1004.58
2023-02-28T01:56:51.802Z,1004.58
2023-02-28T01:57:52.265Z,1004.53
2023-02-28T01:58:51.760Z,1004.62
2023-02-28T01:59:52.268Z,1004.59
2023-02-28T02:00:51.747Z,1004.61
2023-02-28T02:01:51.751Z,1004.56
2023-02-28T02:02:51.787Z,1004.51
2023-02-28T02:03:51.718Z,1004.56
2023-02-28T02:04:51.709Z,1004.55
2023-02-28T02:05:51.716Z,1004.51
2023-02-28T02:06:51.695Z,1004.54
2023-02-28T02:07:51.704Z,1004.45
2023-02-28T02:08:51.672Z,1004.52
2023-02-28T02:09:51.682Z,1004.49
2023-02-28T02:10:51.666Z,1004.46
2023-02-28T02:11:51.669Z,1004.56
2023-02-28T02:12:51.654Z,1004.53
2023-02-28T02:13:51.633Z,1004.51
2023-02-28T02:14:51.637Z,1004.50
2023-02-28T02:15:51.695Z,1004.55
2023-02-28T02:16:51.648Z,1004.46
2023-02-28T02:17:51.608Z,1004.46
2023-02-28T02:18:51.596Z,1004.49
2023-02-28T02:19:51.593Z,1004.45
2023-02-28T02:20:51.581Z,1004.44
2023-02-28T02:21:51.584Z,1004.41
2023-02-28T02:22:51.584Z,1004.41
2023-02-28T02:23:51.561Z,1004.37
2023-02-28T02:24:51.561Z,1004.43
2023-02-28T02:25:51.542Z,1004.47
2023-02-28T02:26:51.554Z,1004.45
2023-02-28T02:27:51.549Z,1004.39
2023-02-28T02:28:51.525Z,1004.46
2023-02-28T02:29:51.516Z,1004.40
2023-02-28T02:30:51.511Z,1004.39
2023-02-28T02:31:51.611Z,1004.41
2023-02-28T02:32:51.501Z,1004.45
2023-02-28T02:33:51.488Z,1004.41
2023-02-28T02:34:51.481Z,1004.43
2023-02-28T02:35:51.527Z,1004.41
2023-02-28T02:36:51.465Z,1004.32
2023-02-28T02:37:51.466Z,1004.42
2023-02-28T02:38:51.460Z,1004.40
2023-02-28T02:39:51.444Z,1004.38
2023-02-28T02:40:51.447Z,1004.40
2023-02-28T02:41:51.444Z,1004.35
2023-02-28T02:42:51.420Z,1004.42
2023-02-28T02:43:51.433Z,1004.46
2023-02-28T02:44:51.400Z,1004.37
2023-02-28T02:45:51.407Z,1004.37
2023-02-28T02:46:51.412Z,1004.37
2023-02-28T02:47:51.374Z,1004.35
2023-02-28T02:48:51.367Z,1004.42
2023-02-28T02:49:51.357Z,1004.44
2023-02-28T02:50:51.363Z,1004.38
2023-02-28T02:51:52.274Z,1004.36
2023-02-28T02:52:51.338Z,1004.38
2023-02-28T02:53:51.361Z,1004.41
2023-02-28T02:54:52.628Z,1004.41
2023-02-28T02:55:51.315Z,1004.42
2023-02-28T02:56:51.299Z,1004.41
2023-02-28T02:57:51.291Z,1004.44
2023-02-28T02:58:51.289Z,1004.48
2023-02-28T02:59:51.286Z,1004.48
2023-02-28T03:00:51.332Z,1004.49
2023-02-28T03:01:51.261Z,1004.49
2023-02-28T03:02:51.252Z,1004.49
2023-02-28T03:03:51.271Z,1004.48
2023-02-28T03:04:51.230Z,1004.46
2023-02-28T03:05:52.227Z,1004.49
2023-02-28T03:06:51.227Z,1004.46
2023-02-28T03:07:51.221Z,1004.45
2023-02-28T03:08:51.213Z,1004.49
2023-02-28T03:09:51.846Z,1004.41
2023-02-28T03:10:51.189Z,1004.47
2023-02-28T03:11:51.181Z,1004.52
2023-02-28T03:12:51.169Z,1004.52
2023-02-28T03:13:51.175Z,1004.48
2023-02-28T03:14:51.152Z,1004.43
2023-02-28T03:15:51.151Z,1004.48
2023-02-28T03:16:51.146Z,1004.46
2023-02-28T03:17:51.144Z,1004.43
2023-02-28T03:18:51.125Z,1004.45
2023-02-28T03:19:51.132Z,1004.48
2023-02-28T03:20:51.115Z,1004.46
2023-02-28T03:21:51.115Z,1004.45
2023-02-28T03:22:51.095Z,1004.45
2023-02-28T03:23:51.088Z,1004.39
2023-02-28T03:24:51.087Z,1004.47
2023-02-28T03:25:51.078Z,1004.47
2023-02-28T03:26:51.078Z,1004.44
2023-02-28T03:27:51.059Z,1004.44
2023-02-28T03:28:51.053Z,1004.43
2023-02-28T03:29:51.040Z,1004.42
2023-02-28T03:30:51.032Z,1004.44
2023-02-28T03:31:51.171Z,1004.47
2023-02-28T03:32:51.019Z,1004.39
2023-02-28T03:33:51.009Z,1004.43
2023-02-28T03:34:51.007Z,1004.38
2023-02-28T03:35:51.073Z,1004.37
2023-02-28T03:36:51.061Z,1004.41
2023-02-28T03:37:50.984Z,1004.34
2023-02-28T03:38:50.983Z,1004.41
2023-02-28T03:39:50.964Z,1004.40
2023-02-28T03:40:50.976Z,1004.32
2023-02-28T03:41:50.960Z,1004.30
2023-02-28T03:42:50.944Z,1004.29
2023-02-28T03:43:50.965Z,1004.34
2023-02-28T03:44:50.926Z,1004.41
2023-02-28T03:45:50.944Z,1004.36
2023-02-28T03:46:50.905Z,1004.31
2023-02-28T03:47:50.979Z,1004.30
2023-02-28T03:48:50.893Z,1004.34
2023-02-28T03:49:50.885Z,1004.32
2023-02-28T03:50:50.883Z,1004.32
2023-02-28T03:51:50.862Z,1004.34
2023-02-28T03:52:50.852Z,1004.33
2023-02-28T03:53:51.853Z,1004.33
2023-02-28T03:54:50.844Z,1004.35
2023-02-28T03:55:51.795Z,1004.37
2023-02-28T03:56:50.826Z,1004.36
2023-02-28T03:57:50.817Z,1004.35
2023-02-28T03:58:54.815Z,1004.30
2023-02-28T03:59:50.813Z,1004.40
2023-02-28T04:00:50.809Z,1004.38
2023-02-28T04:01:50.825Z,1004.31
2023-02-28T04:02:50.789Z,1004.35
2023-02-28T04:03:50.780Z,1004.33
2023-02-28T04:04:50.782Z,1004.32
2023-02-28T04:05:50.772Z,1004.31
2023-02-28T04:06:51.648Z,1004.35
2023-02-28T04:07:51.752Z,1004.36
2023-02-28T04:08:50.730Z,1004.37
2023-02-28T04:09:50.730Z,1004.29
2023-02-28T04:10:50.716Z,1004.31
2023-02-28T04:11:50.713Z,1004.33
2023-02-28T04:12:50.703Z,1004.37
2023-02-28T04:13:50.698Z,1004.36
2023-02-28T04:14:50.685Z,1004.42
2023-02-28T04:15:50.728Z,1004.40
2023-02-28T04:16:50.674Z,1004.39
2023-02-28T04:17:50.671Z,1004.49
2023-02-28T04:18:50.653Z,1004.39
2023-02-28T04:19:50.655Z,1004.40
2023-02-28T04:20:50.650Z,1004.36
2023-02-28T04:21:50.634Z,1004.41
2023-02-28T04:22:50.624Z,1004.41
2023-02-28T04:23:50.622Z,1004.41
2023-02-28T04:24:50.612Z,1004.41
2023-02-28T04:25:50.600Z,1004.42
2023-02-28T04:26:50.602Z,1004.37
2023-02-28T04:27:50.582Z,1004.42
2023-02-28T04:28:50.592Z,1004.42
2023-02-28T04:29:50.566Z,1004.43
2023-02-28T04:30:50.563Z,1004.38
2023-02-28T04:31:50.734Z,1004.40
2023-02-28T04:32:50.574Z,1004.42
2023-02-28T04:33:50.543Z,1004.43
2023-02-28T04:34:51.368Z,1004.42
2023-02-28T04:35:50.568Z,1004.43
2023-02-28T04:36:56.917Z,1004.42
2023-02-28T04:37:52.509Z,1004.41
2023-02-28T04:38:50.510Z,1004.42
2023-02-28T04:39:50.496Z,1004.50
2023-02-28T04:40:50.486Z,1004.41
2023-02-28T04:41:50.468Z,1004.47
2023-02-28T04:42:50.468Z,1004.47
2023-02-28T04:43:50.455Z,1004.44
2023-02-28T04:44:50.453Z,1004.44
2023-02-28T04:45:50.488Z,1004.51
2023-02-28T04:46:50.429Z,1004.49
2023-02-28T04:47:50.421Z,1004.51
2023-02-28T04:48:50.416Z,1004.49
2023-02-28T04:49:50.416Z,1004.53
2023-02-28T04:50:50.401Z,1004.50
2023-02-28T04:51:50.399Z,1004.53
2023-02-28T04:52:50.394Z,1004.51
2023-02-28T04:53:50.382Z,1004.54
2023-02-28T04:54:50.367Z,1004.59
2023-02-28T04:55:50.374Z,1004.55
2023-02-28T04:56:50.360Z,1004.56
2023-02-28T04:57:50.353Z,1004.50
2023-02-28T04:58:50.363Z,1004.53
2023-02-28T04:59:50.336Z,1004.58
2023-02-28T05:00:50.320Z,1004.59
2023-02-28T05:01:50.322Z,1004.68
2023-02-28T05:02:50.308Z,1004.56
2023-02-28T05:03:50.866Z,1004.61
2023-02-28T05:04:50.356Z,1004.64
2023-02-28T05:05:50.312Z,1004.60
2023-02-28T05:06:50.277Z,1004.58
2023-02-28T05:07:50.273Z,1004.59
2023-02-28T05:08:50.270Z,1004.60
2023-02-28T05:09:50.257Z,1004.61
2023-02-28T05:10:50.246Z,1004.60
2023-02-28T05:11:50.243Z,1004.63
2023-02-28T05:12:50.230Z,1004.67
2023-02-28T05:13:50.215Z,1004.73
2023-02-28T05:14:50.214Z,1004.67
2023-02-28T05:15:50.215Z,1004.69
2023-02-28T05:16:50.201Z,1004.70
2023-02-28T05:17:50.183Z,1004.69
2023-02-28T05:18:50.235Z,1004.71
2023-02-28T05:19:50.171Z,1004.66
2023-02-28T05:20:50.167Z,1004.65
2023-02-28T05:21:50.180Z,1004.70
2023-02-28T05:22:50.142Z,1004.70
2023-02-28T05:23:50.147Z,1004.70
2023-02-28T05:24:50.128Z,1004.69
2023-02-28T05:25:50.126Z,1004.68
2023-02-28T05:26:50.118Z,1004.71
2023-02-28T05:27:50.111Z,1004.68
2023-02-28T05:28:50.106Z,1004.69
2023-02-28T05:29:50.098Z,1004.70
2023-02-28T05:30:50.078Z,1004.73
2023-02-28T05:31:50.297Z,1004.69
2023-02-28T05:32:50.071Z,1004.70
2023-02-28T05:33:50.056Z,1004.82
2023-02-28T05:34:50.053Z,1004.75
2023-02-28T05:35:50.068Z,1004.73
2023-02-28T05:36:50.045Z,1004.82
2023-02-28T05:37:50.042Z,1004.82
2023-02-28T05:38:51.871Z,1004.82
2023-02-28T05:39:50.011Z,1004.71
2023-02-28T05:40:51.829Z,1004.82
2023-02-28T05:41:51.877Z,1004.74
2023-02-28T05:42:49.999Z,1004.73
2023-02-28T05:43:49.996Z,1004.74
2023-02-28T05:44:49.992Z,1004.74
2023-02-28T05:45:49.996Z,1004.76
2023-02-28T05:46:49.955Z,1004.70
2023-02-28T05:47:49.953Z,1004.72
2023-02-28T05:48:50.075Z,1004.76
2023-02-28T05:49:51.878Z,1004.79
2023-02-28T05:50:49.928Z,1004.81
2023-02-28T05:51:49.907Z,1004.80
2023-02-28T05:52:49.905Z,1004.75
2023-02-28T05:53:49.909Z,1004.71
2023-02-28T05:54:49.889Z,1004.78
2023-02-28T05:55:49.888Z,1004.74
2023-02-28T05:56:49.875Z,1004.73
2023-02-28T05:57:49.884Z,1004.79
2023-02-28T05:58:49.865Z,1004.86
2023-02-28T05:59:49.868Z,1004.78
2023-02-28T06:00:49.846Z,1004.83
2023-02-28T06:01:49.844Z,1004.74
2023-02-28T06:02:49.841Z,1004.88
2023-02-28T06:03:49.828Z,1004.89
2023-02-28T06:04:49.829Z,1004.85
2023-02-28T06:05:49.813Z,1004.87
2023-02-28T06:06:49.818Z,1004.80
2023-02-28T06:07:49.800Z,1004.83
2023-02-28T06:08:49.803Z,1004.86
2023-02-28T06:09:49.774Z,1004.85
2023-02-28T06:10:49.773Z,1004.88
2023-02-28T06:11:55.019Z,1004.83
2023-02-28T06:12:50.782Z,1004.93
2023-02-28T06:13:49.747Z,1004.97
2023-02-28T06:14:50.794Z,1004.93
2023-02-28T06:15:49.735Z,1004.93
2023-02-28T06:16:49.769Z,1004.93
2023-02-28T06:17:49.713Z,1004.92
2023-02-28T06:18:49.711Z,1004.98
2023-02-28T06:19:49.699Z,1004.96
2023-02-28T06:20:49.693Z,1004.93
2023-02-28T06:21:49.698Z,1004.99
2023-02-28T06:22:49.680Z,1005.00
2023-02-28T06:23:49.687Z,1005.05
2023-02-28T06:24:49.663Z,1005.01
2023-02-28T06:25:49.656Z,1005.06
2023-02-28T06:26:49.654Z,1005.08
2023-02-28T06:27:49.643Z,1005.02
2023-02-28T06:28:49.634Z,1005.03
2023-02-28T06:29:50.624Z,1005.01
2023-02-28T06:30:50.298Z,1005.06
2023-02-28T06:31:50.685Z,1005.07
2023-02-28T06:32:49.599Z,1005.15
2023-02-28T06:33:49.607Z,1005.12
2023-02-28T06:34:50.392Z,1005.17
2023-02-28T06:35:49.625Z,1005.16
2023-02-28T06:36:51.297Z,1005.10
2023-02-28T06:37:49.569Z,1005.13
2023-02-28T06:38:49.546Z,1005.24
2023-02-28T06:39:49.575Z,1005.25
2023-02-28T06:40:49.554Z,1005.25
2023-02-28T06:41:55.215Z,1005.27
2023-02-28T06:42:51.527Z,1005.27
2023-02-28T06:43:49.508Z,1005.28
2023-02-28T06:44:49.500Z,1005.30
2023-02-28T06:45:50.528Z,1005.30
2023-02-28T06:46:49.507Z,1005.30
2023-02-28T06:47:49.484Z,1005.28
2023-02-28T06:48:49.488Z,1005.27
2023-02-28T06:49:51.373Z,1005.26
2023-02-28T06:50:49.472Z,1005.21
2023-02-28T06:51:49.460Z,1005.22
2023-02-28T06:52:49.448Z,1005.27
2023-02-28T06:53:49.443Z,1005.28
2023-02-28T06:54:49.440Z,1005.38
2023-02-28T06:55:49.428Z,1005.31
2023-02-28T06:56:50.306Z,1005.34
2023-02-28T06:57:49.424Z,1005.32
2023-02-28T06:58:49.435Z,1005.42
2023-02-28T06:59:49.423Z,1005.33
2023-02-28T07:00:49.390Z,1005.32
2023-02-28T07:01:49.399Z,1005.36
2023-02-28T07:02:49.376Z,1005.37
2023-02-28T07:03:49.368Z,1005.40
2023-02-28T07:04:49.396Z,1005.40
2023-02-28T07:05:49.338Z,1005.42
2023-02-28T07:06:49.335Z,1005.39
2023-02-28T07:07:49.405Z,1005.41
2023-02-28T07:08:49.316Z,1005.37
2023-02-28T07:09:49.313Z,1005.39
2023-02-28T07:10:49.304Z,1005.50
2023-02-28T07:11:49.291Z,1005.50
2023-02-28T07:12:49.283Z,1005.51
2023-02-28T07:13:50.281Z,1005.49
2023-02-28T07:14:49.269Z,1005.52
2023-02-28T07:15:49.270Z,1005.46
2023-02-28T07:16:49.248Z,1005.48
2023-02-28T07:17:49.254Z,1005.46
2023-02-28T07:18:49.231Z,1005.50
2023-02-28T07:19:49.232Z,1005.50
2023-02-28T07:20:49.216Z,1005.53
2023-02-28T07:21:49.205Z,1005.61
2023-02-28T07:22:49.219Z,1005.49
2023-02-28T07:23:49.200Z,1005.43
2023-02-28T07:24:49.190Z,1005.47
2023-02-28T07:25:49.229Z,1005.48
2023-02-28T07:26:49.182Z,1005.40
2023-02-28T07:27:49.160Z,1005.46
2023-02-28T07:28:49.163Z,1005.51
2023-02-28T07:29:49.140Z,1005.49
2023-02-28T07:30:49.307Z,1005.46
2023-02-28T07:31:49.151Z,1005.48
2023-02-28T07:32:49.128Z,1005.45
2023-02-28T07:33:49.106Z,1005.47
2023-02-28T07:34:49.103Z,1005.55
2023-02-28T07:35:49.121Z,1005.43
2023-02-28T07:36:51.287Z,1005.53
2023-02-28T07:37:49.090Z,1005.50
2023-02-28T07:38:49.081Z,1005.53
2023-02-28T07:39:49.097Z,1005.50
2023-02-28T07:40:49.059Z,1005.49
2023-02-28T07:41:49.063Z,1005.40
2023-02-28T07:42:49.087Z,1005.45
2023-02-28T07:43:49.052Z,1005.44
2023-02-28T07:44:49.026Z,1005.46
2023-02-28T07:45:50.813Z,1005.52
2023-02-28T07:46:49.081Z,1005.42
2023-02-28T07:47:49.008Z,1005.55
2023-02-28T07:48:49.007Z,1005.48
2023-02-28T07:49:48.999Z,1005.45
2023-02-28T07:50:48.987Z,1005.50
2023-02-28T07:51:48.988Z,1005.55
2023-02-28T07:52:48.965Z,1005.50
2023-02-28T07:53:48.963Z,1005.46
2023-02-28T07:54:48.943Z,1005.54
2023-02-28T07:55:48.942Z,1005.54
2023-02-28T07:56:48.944Z,1005.43
2023-02-28T07:57:48.936Z,1005.48
2023-02-28T07:58:48.917Z,1005.49
2023-02-28T07:59:48.915Z,1005.52
2023-02-28T08:00:48.945Z,1005.40
2023-02-28T08:01:48.950Z,1005.45
2023-02-28T08:02:48.898Z,1005.43
2023-02-28T08:03:48.889Z,1005.46
2023-02-28T08:04:49.427Z,1005.47
2023-02-28T08:05:48.856Z,1005.55
2023-02-28T08:06:48.848Z,1005.50
2023-02-28T08:07:48.858Z,1005.46
2023-02-28T08:08:48.837Z,1005.38
2023-02-28T08:09:48.832Z,1005.44
2023-02-28T08:10:48.821Z,1005.50
2023-02-28T08:11:50.451Z,1005.51
2023-02-28T08:12:48.801Z,1005.43
2023-02-28T08:13:48.793Z,1005.46
2023-02-28T08:14:48.782Z,1005.48
2023-02-28T08:15:48.856Z,1005.41
2023-02-28T08:16:48.777Z,1005.48
2023-02-28T08:17:48.765Z,1005.40
2023-02-28T08:18:48.792Z,1005.44
2023-02-28T08:19:48.740Z,1005.33
2023-02-28T08:20:48.759Z,1005.40
2023-02-28T08:21:48.736Z,1005.32
2023-02-28T08:22:48.732Z,1005.45
2023-02-28T08:23:48.722Z,1005.60
2023-02-28T08:24:48.713Z,1005.35
2023-02-28T08:25:48.700Z,1005.33
2023-02-28T08:26:48.688Z,1005.43
2023-02-28T08:27:48.681Z,1005.38
2023-02-28T08:28:48.682Z,1005.48
2023-02-28T08:29:48.656Z,1005.48
2023-02-28T08:30:48.667Z,1005.51
2023-02-28T08:31:48.836Z,1005.47
2023-02-28T08:32:48.688Z,1005.42
2023-02-28T08:33:48.644Z,1005.41
2023-02-28T08:34:48.654Z,1005.50
2023-02-28T08:35:48.696Z,1005.49
2023-02-28T08:36:48.604Z,1005.69
2023-02-28T08:37:48.598Z,1005.50
2023-02-28T08:38:48.592Z,1005.65
2023-02-28T08:39:48.590Z,1005.64
2023-02-28T08:40:48.580Z,1005.72
2023-02-28T08:41:53.457Z,1005.58
2023-02-28T08:42:50.592Z,1005.61
2023-02-28T08:43:48.558Z,1005.71
2023-02-28T08:44:48.541Z,1005.67
2023-02-28T08:45:48.591Z,1005.72
2023-02-28T08:46:48.530Z,1005.59
2023-02-28T08:47:48.548Z,1005.78
2023-02-28T08:48:48.520Z,1005.69
2023-02-28T08:49:48.503Z,1005.65
2023-02-28T08:50:55.725Z,1005.60
2023-02-28T08:51:50.494Z,1005.73
2023-02-28T08:52:48.490Z,1005.62
2023-02-28T08:53:48.472Z,1005.54
2023-02-28T08:54:48.465Z,1005.66
2023-02-28T08:55:48.487Z,1005.58
2023-02-28T08:56:48.461Z,1005.57
2023-02-28T08:57:48.861Z,1005.57
2023-02-28T08:58:48.435Z,1005.65
2023-02-28T08:59:48.436Z,1005.66
2023-02-28T09:00:48.502Z,1005.55
2023-02-28T09:01:48.414Z,1005.62
2023-02-28T09:02:48.401Z,1005.53
2023-02-28T09:03:48.472Z,1005.66
2023-02-28T09:04:49.391Z,1005.60
2023-02-28T09:05:48.404Z,1005.71
2023-02-28T09:06:48.384Z,1005.81
2023-02-28T09:07:48.360Z,1005.57
2023-02-28T09:08:48.373Z,1005.69
2023-02-28T09:09:48.357Z,1005.59
2023-02-28T09:10:48.348Z,1005.67
2023-02-28T09:11:48.333Z,1005.63
2023-02-28T09:12:48.323Z,1005.64
2023-02-28T09:13:48.384Z,1005.47
2023-02-28T09:14:48.311Z,1005.46
2023-02-28T09:15:48.302Z,1005.46
2023-02-28T09:16:48.338Z,1005.55
2023-02-28T09:17:48.742Z,1005.46
2023-02-28T09:18:49.310Z,1005.51
2023-02-28T09:19:48.285Z,1005.57
2023-02-28T09:20:48.270Z,1005.53
2023-02-28T09:21:48.264Z,1005.50
2023-02-28T09:22:48.270Z,1005.48
2023-02-28T09:23:48.260Z,1005.50
2023-02-28T09:24:48.311Z,1005.52
2023-02-28T09:25:48.245Z,1005.49
2023-02-28T09:27:01.541Z,1005.52
2023-02-28T09:27:50.210Z,1005.61
2023-02-28T09:28:48.238Z,1005.42
2023-02-28T09:29:48.211Z,1005.55
2023-02-28T09:30:48.232Z,1005.43
2023-02-28T09:31:48.210Z,1005.47
2023-02-28T09:32:50.343Z,1005.51
2023-02-28T09:33:48.159Z,1005.67
2023-02-28T09:34:48.152Z,1005.57
2023-02-28T09:35:48.231Z,1005.50
2023-02-28T09:36:48.665Z,1005.57
2023-02-28T09:37:48.129Z,1005.49
2023-02-28T09:38:48.903Z,1005.51
2023-02-28T09:39:49.124Z,1005.57
2023-02-28T09:40:48.113Z,1005.53
2023-02-28T09:41:48.121Z,1005.51
2023-02-28T09:42:48.091Z,1005.47
2023-02-28T09:43:48.090Z,1005.46
2023-02-28T09:44:48.083Z,1005.48
2023-02-28T09:45:48.134Z,1005.48
2023-02-28T09:46:48.061Z,1005.44
2023-02-28T09:47:48.058Z,1005.45
2023-02-28T09:48:48.046Z,1005.43
2023-02-28T09:49:48.087Z,1005.59
2023-02-28T09:50:48.025Z,1005.46
2023-02-28T09:51:48.017Z,1005.56
2023-02-28T09:52:48.023Z,1005.48
2023-02-28T09:53:53.290Z,1005.55
2023-02-28T09:54:50.001Z,1005.47
2023-02-28T09:55:47.988Z,1005.43
2023-02-28T09:56:47.979Z,1005.43
2023-02-28T09:57:47.982Z,1005.48
2023-02-28T09:58:48.865Z,1005.49
2023-02-28T09:59:47.960Z,1005.54
2023-02-28T10:00:47.954Z,1005.44
2023-02-28T10:01:47.980Z,1005.45
2023-02-28T10:02:47.938Z,1005.50
2023-02-28T10:03:48.919Z,1005.53
2023-02-28T10:04:47.957Z,1005.58
2023-02-28T10:05:47.908Z,1005.53
2023-02-28T10:06:47.925Z,1005.54
2023-02-28T10:07:48.900Z,1005.52
2023-02-28T10:08:47.882Z,1005.54
2023-02-28T10:09:47.874Z,1005.49
2023-02-28T10:10:47.985Z,1005.56
2023-02-28T10:12:48.863Z,1005.58
2023-02-28T10:13:47.843Z,1005.67
2023-02-28T10:14:47.857Z,1005.53
2023-02-28T10:15:47.880Z,1005.48
2023-02-28T10:16:47.822Z,1005.46
2023-02-28T10:17:55.676Z,1005.48
2023-02-28T10:18:49.800Z,1005.38
2023-02-28T10:19:48.796Z,1005.48
2023-02-28T10:20:47.800Z,1005.47
2023-02-28T10:21:47.774Z,1005.44
2023-02-28T10:22:47.768Z,1005.57
2023-02-28T10:23:47.760Z,1005.46
2023-02-28T10:24:47.747Z,1005.44
2023-02-28T10:25:47.774Z,1005.41
2023-02-28T10:26:47.740Z,1005.45
2023-02-28T10:27:47.738Z,1005.43
2023-02-28T10:28:47.722Z,1005.46
2023-02-28T10:29:47.706Z,1005.48
2023-02-28T10:30:47.764Z,1005.44
2023-02-28T10:31:47.777Z,1005.53
2023-02-28T10:32:47.682Z,1005.44
2023-02-28T10:33:48.398Z,1005.58
2023-02-28T10:34:47.672Z,1005.58
2023-02-28T10:35:47.776Z,1005.38
2023-02-28T10:36:47.656Z,1005.45
2023-02-28T10:37:47.655Z,1005.41
2023-02-28T10:38:47.651Z,1005.54
2023-02-28T10:39:47.633Z,1005.56
2023-02-28T10:40:47.629Z,1005.60
2023-02-28T10:41:48.366Z,1005.64
2023-02-28T10:42:47.613Z,1005.56
2023-02-28T10:43:47.606Z,1005.49
2023-02-28T10:44:47.592Z,1005.53
2023-02-28T10:45:47.590Z,1005.48
2023-02-28T10:46:47.666Z,1005.55
2023-02-28T10:47:47.581Z,1005.46
2023-02-28T10:48:47.565Z,1005.44
2023-02-28T10:49:47.555Z,1005.55
2023-02-28T10:50:47.553Z,1005.32
2023-02-28T10:51:47.536Z,1005.43
2023-02-28T10:52:47.535Z,1005.48
2023-02-28T10:54:00.105Z,1005.44
2023-02-28T10:54:49.549Z,1005.42
2023-02-28T10:55:47.514Z,1005.52
2023-02-28T10:56:47.514Z,1005.37
2023-02-28T10:57:47.491Z,1005.23
2023-02-28T10:58:47.486Z,1005.33
2023-02-28T10:59:47.490Z,1005.32
2023-02-28T11:00:47.476Z,1005.34
2023-02-28T11:01:47.536Z,1005.31
2023-02-28T11:02:47.531Z,1005.34
2023-02-28T11:03:47.466Z,1005.35
2023-02-28T11:04:48.897Z,1005.33
2023-02-28T11:05:48.425Z,1005.30
2023-02-28T11:06:47.450Z,1005.45
2023-02-28T11:07:53.446Z,1005.31
2023-02-28T11:08:51.336Z,1005.34
2023-02-28T11:09:47.426Z,1005.20
2023-02-28T11:10:50.925Z,1005.29
2023-02-28T11:11:47.391Z,1005.45
2023-02-28T11:12:53.141Z,1005.37
2023-02-28T11:13:49.385Z,1005.19
2023-02-28T11:14:47.362Z,1005.33
2023-02-28T11:15:47.378Z,1005.19
2023-02-28T11:16:47.356Z,1005.23
2023-02-28T11:17:47.395Z,1005.29
2023-02-28T11:18:47.320Z,1005.31
2023-02-28T11:19:47.313Z,1005.32
2023-02-28T11:20:47.365Z,1005.26
2023-02-28T11:21:47.301Z,1005.43
2023-02-28T11:22:47.322Z,1005.31
2023-02-28T11:23:47.282Z,1005.27
2023-02-28T11:24:47.279Z,1005.40
2023-02-28T11:25:48.917Z,1005.32
2023-02-28T11:26:47.272Z,1005.29
2023-02-28T11:27:47.251Z,1005.24
2023-02-28T11:28:47.233Z,1005.17
2023-02-28T11:29:47.254Z,1005.39
2023-02-28T11:30:47.222Z,1005.22
2023-02-28T11:31:47.287Z,1005.37
2023-02-28T11:32:47.295Z,1005.17
2023-02-28T11:33:47.207Z,1005.12
2023-02-28T11:34:47.199Z,1005.12
2023-02-28T11:35:47.202Z,1005.32
2023-02-28T11:36:47.198Z,1005.22
2023-02-28T11:37:47.953Z,1005.32
2023-02-28T11:38:50.898Z,1005.32
2023-02-28T11:39:48.183Z,1005.24
2023-02-28T11:40:49.019Z,1005.14
2023-02-28T11:41:47.137Z,1005.06
2023-02-28T11:42:47.165Z,1005.07
2023-02-28T11:43:47.872Z,1005.03
2023-02-28T11:44:47.179Z,1005.28
2023-02-28T11:45:47.097Z,1005.08
2023-02-28T11:46:47.191Z,1005.09
2023-02-28T11:47:47.136Z,1004.99
2023-02-28T11:48:47.090Z,1005.13
2023-02-28T11:49:47.089Z,1005.04
2023-02-28T11:50:47.926Z,1004.95
2023-02-28T11:51:47.053Z,1004.91
2023-02-28T11:52:47.057Z,1004.90
2023-02-28T11:53:47.040Z,1004.89
2023-02-28T11:54:49.941Z,1004.92
2023-02-28T11:55:47.047Z,1004.85
2023-02-28T11:56:47.039Z,1004.88
2023-02-28T11:57:47.030Z,1004.87
2023-02-28T11:58:48.405Z,1004.89
2023-02-28T11:59:48.942Z,1005.23
2023-02-28T12:00:47.002Z,1005.05
2023-02-28T12:01:46.988Z,1005.00
2023-02-28T12:02:47.152Z,1005.06
2023-02-28T12:03:46.982Z,1005.13
2023-02-28T12:04:48.296Z,1005.03
2023-02-28T12:05:47.027Z,1004.99
2023-02-28T12:06:46.949Z,1004.94